Time;durP1;ratioP1;P1;durP2;ratioP2;P2;SDS_P1;SDS_P2;PMS_P1;PMS_P2;Temp;Humidity;BMP_temperature;BMP_pressure;BME280_temperature;BME280_humidity;BME280_pressure;Samples;Min_cycle;Max_cycle;Signal;HPM_P1;HPM_P2
2021/12/19 00:00:43;;;;;;;32.10;19.07;;;4.30;99.90;;;;;;6283966;22;20171;-53
2021/12/19 00:11:03;;;;;;;29.80;19.20;;;4.60;99.90;;;;;;6283056;22;20157;-53
2021/12/19 00:13:29;;;;;;;32.17;20.92;;;4.30;99.90;;;;;;6272621;22;20234;-53
2021/12/19 00:15:56;;;;;;;29.47;18.73;;;4.60;99.90;;;;;;6273094;22;20188;-53
2021/12/19 00:18:22;;;;;;;36.40;20.70;;;4.50;99.90;;;;;;6283873;22;20596;-52
2021/12/19 00:20:48;;;;;;;32.97;18.63;;;4.50;99.90;;;;;;6283297;22;20154;-53
2021/12/19 00:23:14;;;;;;;30.38;20.83;;;4.60;99.90;;;;;;6283793;22;20223;-53
2021/12/19 00:25:40;;;;;;;30.38;18.30;;;4.60;99.90;;;;;;6282716;22;20145;-53
2021/12/19 00:28:06;;;;;;;35.93;20.30;;;4.50;99.90;;;;;;6283256;22;20148;-53
2021/12/19 00:30:32;;;;;;;33.27;20.77;;;4.80;99.90;;;;;;6272462;22;20180;-53
2021/12/19 00:32:58;;;;;;;31.92;19.80;;;4.20;99.90;;;;;;6282656;22;20149;-52
2021/12/19 00:35:24;;;;;;;31.73;19.00;;;4.50;99.90;;;;;;6282960;22;20148;-53
2021/12/19 00:37:51;;;;;;;34.97;20.40;;;4.80;99.90;;;;;;6284211;22;20150;-53
2021/12/19 00:40:17;;;;;;;32.00;20.67;;;4.60;99.90;;;;;;6273521;22;20157;-53
2021/12/19 00:42:43;;;;;;;30.40;19.47;;;4.90;99.90;;;;;;6283357;22;20180;-51
2021/12/19 00:45:26;;;;;;;36.50;22.50;;;5.00;99.90;;;;;;6273329;22;20259;-51
2021/12/19 00:47:52;;;;;;;33.30;20.13;;;4.20;99.90;;;;;;6282286;22;20376;-51
2021/12/19 00:50:18;;;;;;;31.80;19.57;;;4.50;99.90;;;;;;6271870;22;20235;-51
2021/12/19 00:52:46;;;;;;;31.63;19.83;;;4.60;99.90;;;;;;6270463;22;20582;-52
2021/12/19 00:55:16;;;;;;;38.17;21.90;;;4.60;99.90;;;;;;6283090;22;20157;-52
2021/12/19 00:57:42;;;;;;;31.92;20.20;;;4.70;99.90;;;;;;6282717;22;20132;-53
2021/12/19 01:00:11;;;;;;;35.17;21.40;;;4.50;99.90;;;;;;6283564;22;20156;-51
2021/12/19 01:02:37;;;;;;;33.75;20.67;;;4.30;99.90;;;;;;6273107;22;20180;-51
2021/12/19 01:05:04;;;;;;;34.90;20.30;;;4.60;99.90;;;;;;6283434;22;20227;-52
2021/12/19 01:07:30;;;;;;;32.75;21.23;;;4.50;99.90;;;;;;6271918;22;20386;-51
2021/12/19 01:09:55;;;;;;;39.63;22.63;;;4.50;99.90;;;;;;6282740;22;20152;-51
2021/12/19 01:12:22;;;;;;;39.50;20.70;;;4.60;99.90;;;;;;6271948;22;20211;-51
2021/12/19 01:14:48;;;;;;;36.20;21.80;;;4.10;99.90;;;;;;6282756;22;20200;-52
2021/12/19 01:17:14;;;;;;;38.10;22.60;;;4.40;99.90;;;;;;6272531;22;20561;-51
2021/12/19 01:19:39;;;;;;;33.83;20.93;;;4.40;99.90;;;;;;6272941;22;20164;-52
2021/12/19 01:22:05;;;;;;;35.50;22.00;;;4.70;99.90;;;;;;6282921;22;20182;-52
2021/12/19 01:24:31;;;;;;;36.30;22.20;;;4.60;99.90;;;;;;6272935;22;20180;-52
2021/12/19 01:26:57;;;;;;;38.00;22.60;;;4.40;99.90;;;;;;6282267;22;20328;-52
2021/12/19 01:29:22;;;;;;;36.33;22.03;;;4.80;99.90;;;;;;6282295;22;20149;-52
2021/12/19 01:31:48;;;;;;;43.70;22.93;;;4.70;99.90;;;;;;6282214;22;20767;-52
2021/12/19 01:34:14;;;;;;;38.40;22.33;;;4.30;99.90;;;;;;6271649;22;20414;-52
2021/12/19 01:36:41;;;;;;;36.43;21.97;;;4.40;99.90;;;;;;6282873;22;20152;-53
2021/12/19 01:39:09;;;;;;;32.80;20.13;;;4.20;99.90;;;;;;6285477;22;20235;-55
2021/12/19 01:41:35;;;;;;;37.08;23.17;;;4.20;99.90;;;;;;6284870;22;20157;-54
2021/12/19 01:44:00;;;;;;;39.03;22.50;;;4.20;99.90;;;;;;6285463;22;20538;-52
2021/12/19 01:46:26;;;;;;;35.77;20.30;;;4.20;99.90;;;;;;6285128;22;20145;-52
2021/12/19 01:48:52;;;;;;;37.27;22.10;;;4.10;99.90;;;;;;6283298;22;20163;-52
2021/12/19 01:51:17;;;;;;;33.77;19.40;;;4.50;99.90;;;;;;6284093;22;20480;-52
2021/12/19 01:53:43;;;;;;;37.60;21.93;;;4.60;99.90;;;;;;6274069;22;20230;-52
2021/12/19 01:56:09;;;;;;;38.83;22.60;;;4.60;99.90;;;;;;6284852;22;20161;-52
2021/12/19 01:58:37;;;;;;;38.50;21.70;;;4.30;99.90;;;;;;6274633;22;20156;-52
2021/12/19 02:01:03;;;;;;;37.85;20.10;;;4.20;99.90;;;;;;6274835;22;20228;-53
2021/12/19 02:03:30;;;;;;;35.63;20.30;;;4.40;99.90;;;;;;6284879;22;20223;-52
2021/12/19 02:05:55;;;;;;;36.95;19.92;;;4.40;99.90;;;;;;6284863;22;20216;-52
2021/12/19 02:08:21;;;;;;;38.50;20.60;;;4.20;99.90;;;;;;6284280;22;20183;-52
2021/12/19 02:10:47;;;;;;;40.22;21.40;;;4.30;99.90;;;;;;6271870;22;20604;-52
2021/12/19 02:13:14;;;;;;;33.97;19.77;;;4.30;99.90;;;;;;6284114;22;20182;-52
2021/12/19 02:15:42;;;;;;;36.92;20.30;;;4.10;99.90;;;;;;6283220;22;20536;-52
2021/12/19 02:18:11;;;;;;;35.72;20.80;;;4.40;99.90;;;;;;6272998;22;20588;-52
2021/12/19 02:20:40;;;;;;;38.65;20.90;;;3.60;99.90;;;;;;6284544;22;20222;-52
2021/12/19 02:23:08;;;;;;;36.85;22.98;;;4.30;99.90;;;;;;6284347;22;20180;-52
2021/12/19 02:25:33;;;;;;;35.50;20.33;;;4.30;99.90;;;;;;6284116;22;20153;-52
2021/12/19 02:28:00;;;;;;;40.80;20.63;;;4.40;99.90;;;;;;6284068;22;20155;-52
2021/12/19 02:30:25;;;;;;;33.20;19.30;;;4.30;99.90;;;;;;6283917;22;20479;-52
2021/12/19 02:32:51;;;;;;;35.23;20.30;;;4.50;99.90;;;;;;6272811;22;20161;-52
2021/12/19 02:35:20;;;;;;;26.37;16.13;;;4.50;99.90;;;;;;6273349;22;20212;-52
2021/12/19 02:48:44;;;;;;;22.10;14.20;;;4.70;99.90;;;;;;6282611;22;20150;-52
2021/12/19 02:51:09;;;;;;;20.80;13.70;;;4.70;99.90;;;;;;6283230;22;20174;-52
2021/12/19 02:53:38;;;;;;;21.53;12.53;;;4.60;99.90;;;;;;6283419;22;20182;-52
2021/12/19 02:56:06;;;;;;;21.95;12.20;;;4.60;99.90;;;;;;6283707;22;20191;-52
2021/12/19 02:58:35;;;;;;;21.50;13.30;;;4.70;99.90;;;;;;6274355;22;20230;-52
2021/12/19 03:01:04;;;;;;;18.98;12.48;;;4.80;99.90;;;;;;6274335;22;20156;-52
2021/12/19 03:03:29;;;;;;;21.58;13.27;;;4.40;99.90;;;;;;6274096;22;20562;-52
2021/12/19 03:05:56;;;;;;;19.70;12.00;;;3.60;99.90;;;;;;6274238;22;20242;-53
2021/12/19 03:08:22;;;;;;;23.20;12.75;;;3.80;99.90;;;;;;6283576;22;20152;-52
2021/12/19 03:18:39;;;;;;;19.52;11.40;;;4.20;99.90;;;;;;6284248;22;20271;-53
2021/12/19 03:21:05;;;;;;;21.88;12.05;;;4.20;99.90;;;;;;6284124;22;20228;-52
2021/12/19 03:23:31;;;;;;;23.98;12.98;;;4.30;99.90;;;;;;6274008;22;20188;-52
2021/12/19 03:25:57;;;;;;;20.03;11.60;;;4.00;99.90;;;;;;6273978;22;20154;-52
2021/12/19 03:28:23;;;;;;;19.77;10.87;;;4.00;99.90;;;;;;6283457;22;20228;-52
2021/12/19 03:30:49;;;;;;;20.65;11.88;;;4.10;99.90;;;;;;6283287;22;20589;-52
2021/12/19 03:33:15;;;;;;;20.50;12.00;;;4.40;99.90;;;;;;6283266;22;20227;-53
2021/12/19 03:35:41;;;;;;;16.02;9.50;;;4.40;99.90;;;;;;6283530;22;20154;-52
2021/12/19 03:38:09;;;;;;;18.50;11.88;;;4.30;99.90;;;;;;6283854;22;20203;-52
2021/12/19 03:40:38;;;;;;;17.75;11.25;;;4.40;99.90;;;;;;6284079;22;20211;-53
2021/12/19 03:43:07;;;;;;;21.10;11.75;;;3.70;99.90;;;;;;6284216;22;20223;-53
2021/12/19 03:45:34;;;;;;;21.38;11.05;;;4.10;99.90;;;;;;6283883;22;20496;-52
2021/12/19 03:48:01;;;;;;;16.50;9.32;;;4.40;99.90;;;;;;6283385;22;20151;-53
2021/12/19 03:50:27;;;;;;;15.95;9.57;;;4.10;99.90;;;;;;6271917;22;20155;-53
2021/12/19 03:52:55;;;;;;;18.17;10.63;;;4.20;99.90;;;;;;6283391;22;20164;-52
2021/12/19 03:55:24;;;;;;;20.38;11.20;;;4.40;99.90;;;;;;6272813;22;20399;-53
2021/12/19 03:57:50;;;;;;;16.65;10.32;;;4.30;99.90;;;;;;6283617;22;20148;-52
2021/12/19 04:00:23;;;;;;;15.60;9.40;;;4.20;99.90;;;;;;6284340;22;20528;-51
2021/12/19 04:02:54;;;;;;;14.32;9.30;;;4.20;99.90;;;;;;6283919;22;20572;-51
2021/12/19 04:05:19;;;;;;;18.95;10.50;;;4.00;99.90;;;;;;6283731;22;20129;-51
2021/12/19 04:07:45;;;;;;;15.30;8.90;;;4.30;99.90;;;;;;6283022;22;20190;-51
2021/12/19 04:10:11;;;;;;;15.67;8.67;;;4.30;99.90;;;;;;6283216;22;20179;-51
2021/12/19 04:12:37;;;;;;;12.40;8.25;;;4.10;99.90;;;;;;6272190;22;20180;-51
2021/12/19 04:15:04;;;;;;;14.97;9.73;;;4.00;99.90;;;;;;6283920;22;20569;-50
2021/12/19 04:17:30;;;;;;;14.07;9.32;;;4.10;99.90;;;;;;6282601;22;20156;-52
2021/12/19 04:19:55;;;;;;;14.40;9.90;;;4.00;99.90;;;;;;6271936;22;20153;-51
2021/12/19 04:22:21;;;;;;;14.00;9.70;;;4.10;99.90;;;;;;6283665;22;20208;-52
2021/12/19 04:24:47;;;;;;;14.53;9.07;;;3.90;99.90;;;;;;6273553;22;20208;-52
2021/12/19 04:27:13;;;;;;;16.60;9.48;;;3.80;99.90;;;;;;6282486;22;20145;-51
2021/12/19 04:29:39;;;;;;;14.23;9.13;;;4.00;99.90;;;;;;6283487;22;20159;-52
2021/12/19 04:32:07;;;;;;;15.07;9.90;;;4.00;99.90;;;;;;6272655;22;20394;-52
2021/12/19 04:34:32;;;;;;;15.05;9.45;;;3.80;99.90;;;;;;6272579;22;20185;-52
2021/12/19 04:37:06;;;;;;;14.87;9.40;;;3.30;99.90;;;;;;6272278;22;20251;-51
2021/12/19 04:39:41;;;;;;;18.38;10.02;;;3.70;99.90;;;;;;6272733;22;20606;-52
2021/12/19 04:58:19;;;;;;;20.13;11.00;;;3.70;99.90;;;;;;6282353;22;20190;-52
2021/12/19 05:00:59;;;;;;;16.50;10.75;;;3.70;99.90;;;;;;6283341;22;20482;-52
2021/12/19 05:06:12;;;;;;;20.80;10.15;;;3.70;99.90;;;;;;6283373;22;20137;-52
2021/12/19 05:14:31;;;;;;;14.57;8.65;;;4.20;99.90;;;;;;6286066;22;20222;-52
2021/12/19 05:16:55;;;;;;;15.65;9.57;;;4.10;99.90;;;;;;6275770;22;20242;-52
2021/12/19 05:19:27;;;;;;;15.35;8.95;;;3.60;99.90;;;;;;6286143;22;20152;-52
2021/12/19 05:21:58;;;;;;;15.13;8.77;;;3.80;99.90;;;;;;6273668;22;20273;-52
2021/12/19 05:27:05;;;;;;;15.95;9.45;;;3.90;99.90;;;;;;6285859;22;20477;-52
2021/12/19 05:29:32;;;;;;;15.60;9.25;;;3.30;99.90;;;;;;6286138;22;20156;-52
2021/12/19 05:31:58;;;;;;;14.75;9.20;;;4.00;99.90;;;;;;6275731;22;20168;-52
2021/12/19 05:34:24;;;;;;;14.83;8.77;;;4.10;99.90;;;;;;6284974;22;20548;-52
2021/12/19 05:45:15;;;;;;;15.88;10.43;;;3.30;99.90;;;;;;6285709;22;20183;-52
2021/12/19 05:47:48;;;;;;;16.08;9.02;;;3.90;99.90;;;;;;6285652;22;20140;-52
2021/12/19 05:50:16;;;;;;;18.42;10.90;;;3.60;99.90;;;;;;6285770;22;20136;-51
2021/12/19 05:52:43;;;;;;;18.83;10.75;;;3.90;99.90;;;;;;6285082;22;20235;-51
2021/12/19 05:55:09;;;;;;;17.55;10.68;;;3.70;99.90;;;;;;6285978;22;20249;-52
2021/12/19 05:57:35;;;;;;;19.75;10.52;;;4.00;99.90;;;;;;6274592;22;20156;-52
2021/12/19 06:00:03;;;;;;;19.10;10.85;;;3.80;99.90;;;;;;6273800;22;20261;-52
2021/12/19 06:02:29;;;;;;;17.27;10.40;;;3.10;99.90;;;;;;6286020;22;20271;-52
2021/12/19 06:04:55;;;;;;;12.90;8.52;;;3.90;99.90;;;;;;6274995;22;20493;-52
2021/12/19 06:07:21;;;;;;;19.90;11.20;;;3.70;99.90;;;;;;6274956;22;20239;-52
2021/12/19 06:09:46;;;;;;;16.20;9.10;;;3.50;99.90;;;;;;6274344;22;20390;-52
2021/12/19 06:12:12;;;;;;;15.57;9.00;;;3.70;99.90;;;;;;6285992;22;20163;-51
2021/12/19 06:14:38;;;;;;;13.87;9.63;;;3.70;99.90;;;;;;6275855;22;20182;-51
2021/12/19 06:17:04;;;;;;;14.10;8.10;;;3.10;99.90;;;;;;6286409;22;20599;-52
2021/12/19 06:19:36;;;;;;;17.23;8.65;;;3.40;99.90;;;;;;6286089;22;20206;-52
2021/12/19 06:22:02;;;;;;;14.65;8.75;;;3.50;99.90;;;;;;6286311;22;20172;-52
2021/12/19 06:24:28;;;;;;;14.40;9.02;;;3.30;99.90;;;;;;6285162;22;20168;-52
2021/12/19 06:26:53;;;;;;;9.80;7.40;;;3.60;99.90;;;;;;6273206;22;20156;-51
2021/12/19 06:29:19;;;;;;;12.37;7.30;;;3.50;99.90;;;;;;6274644;22;20428;-52
2021/12/19 06:31:44;;;;;;;13.43;7.93;;;3.50;99.90;;;;;;6284559;22;20145;-52
2021/12/19 06:34:10;;;;;;;13.30;8.90;;;3.40;99.90;;;;;;6283673;22;20160;-52
2021/12/19 06:36:37;;;;;;;14.20;9.37;;;3.90;99.90;;;;;;6283463;22;20177;-52
2021/12/19 06:39:03;;;;;;;14.43;8.73;;;3.40;99.90;;;;;;6283626;22;20862;-52
2021/12/19 06:41:29;;;;;;;14.00;7.80;;;3.60;99.90;;;;;;6284180;22;20144;-52
2021/12/19 06:43:54;;;;;;;13.17;8.47;;;3.60;99.90;;;;;;6284551;22;20264;-52
2021/12/19 06:46:20;;;;;;;12.50;8.30;;;3.20;99.90;;;;;;6284541;22;20173;-52
2021/12/19 06:48:46;;;;;;;10.87;6.50;;;3.20;99.90;;;;;;6284020;22;20149;-53
2021/12/19 06:51:11;;;;;;;13.97;8.37;;;3.20;99.90;;;;;;6273944;22;20176;-53
2021/12/19 06:53:37;;;;;;;13.97;7.70;;;3.50;99.90;;;;;;6284501;22;20171;-53
2021/12/19 06:56:03;;;;;;;11.20;6.90;;;3.40;99.90;;;;;;6274068;22;20206;-53
2021/12/19 06:58:29;;;;;;;11.35;7.03;;;3.20;99.90;;;;;;6284001;22;20168;-53
2021/12/19 07:00:55;;;;;;;11.37;7.10;;;3.20;99.90;;;;;;6272933;22;20157;-53
2021/12/19 07:03:23;;;;;;;12.80;8.10;;;3.30;99.90;;;;;;6273465;22;20188;-53
2021/12/19 07:05:49;;;;;;;12.10;8.30;;;3.30;99.90;;;;;;6284341;22;20151;-52
2021/12/19 07:08:16;;;;;;;10.80;8.23;;;3.20;99.90;;;;;;6273244;22;20161;-53
2021/12/19 07:10:41;;;;;;;11.75;7.10;;;3.10;99.90;;;;;;6273756;22;20167;-51
2021/12/19 07:13:07;;;;;;;11.13;7.33;;;3.30;99.90;;;;;;6284187;22;20264;-52
2021/12/19 07:15:33;;;;;;;11.67;7.13;;;3.40;99.90;;;;;;6284305;22;20220;-52
2021/12/19 07:18:02;;;;;;;12.33;7.43;;;3.40;99.90;;;;;;6273647;22;20161;-53
2021/12/19 07:20:29;;;;;;;11.10;7.13;;;3.40;99.90;;;;;;6272362;22;20781;-53
2021/12/19 07:22:55;;;;;;;14.43;7.22;;;3.20;99.90;;;;;;6284463;22;20612;-53
2021/12/19 07:25:20;;;;;;;11.10;6.53;;;2.60;99.90;;;;;;6274333;22;20195;-52
2021/12/19 07:27:46;;;;;;;12.53;6.43;;;3.10;99.90;;;;;;6283850;22;20160;-51
2021/12/19 07:30:12;;;;;;;9.43;5.97;;;3.10;99.90;;;;;;6271998;22;20156;-50
2021/12/19 07:32:38;;;;;;;7.83;5.47;;;3.50;99.90;;;;;;6272285;22;20235;-52
2021/12/19 07:35:07;;;;;;;7.68;5.00;;;2.60;99.90;;;;;;6272844;22;20411;-51
2021/12/19 07:37:34;;;;;;;9.43;5.75;;;3.30;99.90;;;;;;6283764;22;20187;-51
2021/12/19 07:40:11;;;;;;;10.13;5.60;;;3.30;99.90;;;;;;6283755;22;20153;-51
2021/12/19 07:42:37;;;;;;;9.90;5.85;;;3.00;99.90;;;;;;6273965;22;20238;-51
2021/12/19 07:45:04;;;;;;;9.37;6.47;;;3.30;99.90;;;;;;6282931;22;20279;-51
2021/12/19 07:47:30;;;;;;;10.55;6.05;;;3.20;99.90;;;;;;6273241;22;20152;-51
2021/12/19 07:49:56;;;;;;;7.00;5.00;;;3.10;99.90;;;;;;6283563;22;20152;-51
2021/12/19 07:52:21;;;;;;;9.17;6.07;;;3.30;99.90;;;;;;6283900;22;20194;-52
2021/12/19 07:54:47;;;;;;;9.00;6.00;;;2.90;99.90;;;;;;6280875;22;20242;-51
2021/12/19 07:57:12;;;;;;;11.23;5.93;;;2.90;99.90;;;;;;6281385;22;20248;-52
2021/12/19 07:59:38;;;;;;;7.73;4.93;;;2.90;99.90;;;;;;6273036;22;20157;-51
2021/12/19 08:02:04;;;;;;;11.80;6.47;;;3.10;99.90;;;;;;6283394;22;20263;-51
2021/12/19 08:04:30;;;;;;;8.07;5.95;;;3.20;99.90;;;;;;6279953;22;20176;-51
2021/12/19 08:06:56;;;;;;;8.00;5.07;;;3.10;99.90;;;;;;6272386;22;20466;-50
2021/12/19 08:09:35;;;;;;;8.80;5.33;;;3.20;99.90;;;;;;6272871;22;20227;-51
2021/12/19 08:12:01;;;;;;;8.65;5.30;;;3.00;99.90;;;;;;6280241;22;20133;-49
2021/12/19 08:14:26;;;;;;;10.60;6.15;;;3.30;99.90;;;;;;6271675;22;20279;-51
2021/12/19 08:16:52;;;;;;;8.60;5.27;;;3.50;99.90;;;;;;6281561;22;20234;-51
2021/12/19 08:19:18;;;;;;;7.97;5.47;;;3.20;99.90;;;;;;6270456;22;20152;-50
2021/12/19 08:21:43;;;;;;;8.90;5.73;;;3.30;99.90;;;;;;6271512;22;20496;-49
2021/12/19 08:24:11;;;;;;;7.80;4.47;;;3.50;99.90;;;;;;6281300;22;20164;-50
2021/12/19 08:26:38;;;;;;;8.50;5.90;;;3.50;99.90;;;;;;6282320;22;20619;-51
2021/12/19 08:29:03;;;;;;;10.35;6.18;;;3.60;99.90;;;;;;6283336;22;20530;-51
2021/12/19 08:31:29;;;;;;;11.53;7.63;;;3.50;99.90;;;;;;6272410;22;20157;-50
2021/12/19 08:33:55;;;;;;;7.20;5.10;;;3.40;99.90;;;;;;6281992;22;20200;-51
2021/12/19 08:36:20;;;;;;;6.20;4.33;;;3.50;99.90;;;;;;6282245;22;20153;-51
2021/12/19 08:38:47;;;;;;;5.50;3.83;;;3.20;99.90;;;;;;6282415;22;20152;-51
2021/12/19 08:41:14;;;;;;;9.50;4.90;;;3.50;99.90;;;;;;6271363;22;20156;-51
2021/12/19 08:43:39;;;;;;;8.45;5.05;;;3.40;99.90;;;;;;6272124;22;20218;-51
2021/12/19 08:46:08;;;;;;;9.10;4.70;;;3.30;99.90;;;;;;6282670;22;20458;-51
2021/12/19 08:48:34;;;;;;;7.82;4.60;;;3.60;99.90;;;;;;6282519;22;20224;-51
2021/12/19 08:51:00;;;;;;;8.93;5.10;;;3.20;99.90;;;;;;6282177;22;20200;-51
2021/12/19 08:53:25;;;;;;;5.70;4.70;;;3.00;99.90;;;;;;6272874;22;20180;-50
2021/12/19 08:55:51;;;;;;;5.63;4.03;;;3.50;99.90;;;;;;6271852;22;20392;-50
2021/12/19 08:58:17;;;;;;;7.17;4.43;;;3.70;99.90;;;;;;6271255;22;20673;-51
2021/12/19 09:00:42;;;;;;;5.43;4.00;;;3.60;99.90;;;;;;6273259;22;20167;-51
2021/12/19 09:03:09;;;;;;;6.93;4.00;;;3.70;99.90;;;;;;6272682;22;20547;-50
2021/12/19 09:05:35;;;;;;;6.22;4.07;;;3.80;99.90;;;;;;6272419;22;20163;-51
2021/12/19 09:08:01;;;;;;;7.82;5.28;;;3.20;99.90;;;;;;6281351;22;20236;-51
2021/12/19 09:10:27;;;;;;;8.03;4.73;;;3.80;99.90;;;;;;6282911;22;20579;-51
2021/12/19 09:12:53;;;;;;;4.80;3.45;;;3.50;99.90;;;;;;6271803;22;20433;-50
2021/12/19 09:15:20;;;;;;;8.63;4.20;;;3.60;99.90;;;;;;6283352;22;20211;-53
2021/12/19 09:17:46;;;;;;;5.90;3.92;;;3.60;99.90;;;;;;6271696;22;20391;-51
2021/12/19 09:20:12;;;;;;;6.27;4.07;;;3.70;99.90;;;;;;6271775;22;20210;-50
2021/12/19 09:22:38;;;;;;;4.60;3.55;;;3.90;99.90;;;;;;6282015;22;20173;-50
2021/12/19 09:25:04;;;;;;;6.43;3.50;;;3.70;99.90;;;;;;6282799;22;20651;-51
2021/12/19 09:27:30;;;;;;;4.47;3.55;;;3.80;99.90;;;;;;6281001;22;20148;-51
2021/12/19 09:29:55;;;;;;;4.70;3.37;;;3.90;99.90;;;;;;6272803;22;20159;-51
2021/12/19 09:32:21;;;;;;;5.43;3.70;;;3.80;99.90;;;;;;6271183;22;20161;-51
2021/12/19 09:34:46;;;;;;;4.83;3.77;;;4.10;99.90;;;;;;6269917;22;20187;-51
2021/12/19 09:37:13;;;;;;;5.33;3.17;;;4.00;99.90;;;;;;6282717;22;20659;-50
2021/12/19 09:39:39;;;;;;;4.18;3.22;;;3.60;99.90;;;;;;6272597;22;20161;-51
2021/12/19 09:42:09;;;;;;;5.57;3.40;;;4.30;99.90;;;;;;6271975;22;20581;-51
2021/12/19 09:44:39;;;;;;;6.50;4.07;;;4.10;99.90;;;;;;6272396;22;20170;-51
2021/12/19 09:47:07;;;;;;;4.05;2.88;;;4.10;99.90;;;;;;6282945;22;20153;-51
2021/12/19 09:49:34;;;;;;;4.47;3.42;;;4.20;99.90;;;;;;6272972;22;20176;-51
2021/12/19 09:52:02;;;;;;;4.65;3.72;;;3.50;99.90;;;;;;6279750;22;20161;-51
2021/12/19 09:54:28;;;;;;;3.55;2.97;;;4.10;99.90;;;;;;6282322;22;20380;-50
2021/12/19 09:56:54;;;;;;;5.35;4.45;;;4.30;99.90;;;;;;6271290;22;20630;-51
2021/12/19 09:59:21;;;;;;;4.13;3.70;;;4.30;99.90;;;;;;6272466;22;20243;-51
2021/12/19 10:01:49;;;;;;;5.38;3.70;;;4.20;99.90;;;;;;6273090;22;20162;-51
2021/12/19 10:04:41;;;;;;;5.70;3.67;;;4.20;99.90;;;;;;6284158;22;20512;-50
2021/12/19 10:07:11;;;;;;;5.18;3.10;;;4.50;99.90;;;;;;6283990;22;20133;-51
2021/12/19 10:10:03;;;;;;;3.75;3.35;;;4.00;99.90;;;;;;6273370;22;20601;-51
2021/12/19 10:15:25;;;;;;;4.53;3.15;;;4.10;99.90;;;;;;6284829;22;20200;-51
2021/12/19 10:18:09;;;;;;;5.35;3.50;;;4.30;99.90;;;;;;6271627;22;20194;-51
2021/12/19 10:20:46;;;;;;;3.78;2.80;;;4.40;99.90;;;;;;6284505;22;20155;-51
2021/12/19 10:23:16;;;;;;;3.20;2.40;;;4.60;99.90;;;;;;6283330;22;20652;-51
2021/12/19 10:25:42;;;;;;;2.92;2.60;;;4.90;99.90;;;;;;6285161;22;20195;-51
2021/12/19 10:28:10;;;;;;;4.20;3.50;;;4.70;99.90;;;;;;6283683;22;20663;-51
2021/12/19 10:30:46;;;;;;;4.28;3.33;;;4.60;99.90;;;;;;6274474;22;20508;-51
2021/12/19 10:33:18;;;;;;;3.40;2.70;;;5.00;99.90;;;;;;6284965;22;20173;-51
2021/12/19 10:35:49;;;;;;;3.70;2.38;;;4.20;99.90;;;;;;6273623;22;20161;-51
2021/12/19 10:38:22;;;;;;;3.92;3.00;;;4.70;99.90;;;;;;6272111;22;20239;-50
2021/12/19 10:40:51;;;;;;;2.90;2.33;;;4.90;99.90;;;;;;6283914;22;20153;-51
2021/12/19 10:43:19;;;;;;;3.75;2.33;;;4.70;99.90;;;;;;6284253;22;20192;-51
2021/12/19 10:45:48;;;;;;;2.20;1.90;;;4.60;99.90;;;;;;6284755;22;20204;-51
2021/12/19 10:48:20;;;;;;;3.08;2.50;;;4.60;99.90;;;;;;6285314;22;20603;-51
2021/12/19 10:50:45;;;;;;;4.20;2.60;;;4.20;99.90;;;;;;6279180;22;20497;-51
2021/12/19 10:53:12;;;;;;;3.70;2.80;;;4.70;99.90;;;;;;6284399;22;20180;-50
2021/12/19 10:55:40;;;;;;;2.95;2.50;;;4.70;99.90;;;;;;6273241;22;20157;-50
2021/12/19 10:58:31;;;;;;;3.75;2.80;;;4.80;99.90;;;;;;6283306;22;20192;-50
2021/12/19 11:01:12;;;;;;;3.45;2.45;;;5.10;99.90;;;;;;6274261;22;20176;-51
2021/12/19 11:03:39;;;;;;;4.07;3.60;;;5.00;99.90;;;;;;6283746;22;20531;-51
2021/12/19 11:06:18;;;;;;;3.22;2.40;;;5.00;99.90;;;;;;6273027;22;20145;-51
2021/12/19 11:08:45;;;;;;;4.63;3.25;;;4.90;99.90;;;;;;6273637;22;20355;-50
2021/12/19 11:11:12;;;;;;;3.15;2.75;;;4.70;99.90;;;;;;6283999;22;20522;-50
2021/12/19 11:13:38;;;;;;;3.53;2.95;;;4.80;99.90;;;;;;6283453;22;20175;-50
2021/12/19 11:16:05;;;;;;;3.75;2.90;;;4.70;99.90;;;;;;6284291;22;20586;-51
2021/12/19 11:18:31;;;;;;;3.35;2.45;;;4.60;99.90;;;;;;6272899;22;20162;-50
2021/12/19 11:20:57;;;;;;;4.18;3.10;;;4.60;99.90;;;;;;6273008;22;20173;-50
2021/12/19 11:23:26;;;;;;;3.35;2.90;;;4.80;99.90;;;;;;6282220;22;20185;-51
2021/12/19 11:25:53;;;;;;;4.07;3.00;;;4.60;99.90;;;;;;6283358;22;20691;-50
2021/12/19 11:28:20;;;;;;;3.35;2.78;;;4.60;99.90;;;;;;6283910;22;20162;-49
2021/12/19 11:30:47;;;;;;;5.15;3.45;;;4.70;99.90;;;;;;6273422;22;20187;-50
2021/12/19 11:33:18;;;;;;;3.78;2.63;;;4.00;99.90;;;;;;6283173;22;20631;-51
2021/12/19 11:35:47;;;;;;;3.50;3.10;;;4.30;99.90;;;;;;6271566;22;20157;-50
2021/12/19 11:38:17;;;;;;;4.13;3.08;;;4.40;99.90;;;;;;6273200;22;20163;-50
2021/12/19 11:40:42;;;;;;;3.58;2.83;;;4.40;99.90;;;;;;6283802;22;20577;-51
2021/12/19 11:43:11;;;;;;;4.20;2.80;;;4.90;99.90;;;;;;6273217;22;20212;-50
2021/12/19 11:45:41;;;;;;;4.15;3.20;;;4.60;99.90;;;;;;6283025;22;20382;-50
2021/12/19 11:48:26;;;;;;;5.55;4.05;;;5.10;99.90;;;;;;6282190;22;20131;-50
2021/12/19 11:51:17;;;;;;;3.78;3.17;;;4.50;99.90;;;;;;6282500;22;20170;-51
2021/12/19 11:53:43;;;;;;;3.78;3.38;;;4.90;99.90;;;;;;6258421;22;20468;-51
2021/12/19 11:56:16;;;;;;;4.25;3.00;;;5.00;99.90;;;;;;6283762;22;20545;-50
2021/12/19 11:58:49;;;;;;;5.57;3.28;;;5.10;99.90;;;;;;6273377;22;20149;-51
2021/12/19 12:01:27;;;;;;;4.78;2.97;;;5.40;99.90;;;;;;6270890;22;20163;-50
2021/12/19 12:03:58;;;;;;;5.10;3.53;;;5.30;99.90;;;;;;6280808;22;20190;-50
2021/12/19 12:06:28;;;;;;;4.30;2.90;;;5.30;99.90;;;;;;6283612;22;20625;-50
2021/12/19 12:09:20;;;;;;;5.97;3.80;;;5.20;99.90;;;;;;6272614;22;20161;-50
2021/12/19 12:12:04;;;;;;;3.85;3.05;;;4.70;99.90;;;;;;6283211;22;20605;-51
2021/12/19 12:14:34;;;;;;;3.63;2.83;;;5.20;99.90;;;;;;6283210;22;20538;-50
2021/12/19 12:17:15;;;;;;;3.70;3.20;;;5.10;99.90;;;;;;6283032;22;20173;-51
2021/12/19 12:19:46;;;;;;;3.40;3.10;;;5.00;99.90;;;;;;6282802;22;20515;-51
2021/12/19 12:22:25;;;;;;;4.05;3.28;;;4.80;99.90;;;;;;6272706;22;20183;-50
2021/12/19 12:25:14;;;;;;;3.80;3.28;;;5.00;99.90;;;;;;6282911;22;20274;-50
2021/12/19 12:27:46;;;;;;;3.78;3.20;;;4.90;99.90;;;;;;6282312;22;20180;-50
2021/12/19 12:30:15;;;;;;;3.90;3.50;;;4.60;99.90;;;;;;6283333;22;20150;-50
2021/12/19 12:32:41;;;;;;;6.70;3.40;;;5.10;99.90;;;;;;6283602;22;20615;-50
2021/12/19 12:35:11;;;;;;;4.23;3.33;;;4.90;99.90;;;;;;6282831;22;20249;-50
2021/12/19 12:37:37;;;;;;;3.67;3.25;;;5.10;99.90;;;;;;6272653;22;20390;-50
2021/12/19 12:40:24;;;;;;;4.60;3.42;;;4.90;99.90;;;;;;6273304;22;20161;-49
2021/12/19 12:43:01;;;;;;;4.97;3.90;;;4.60;99.90;;;;;;6272588;22;20172;-50
2021/12/19 12:45:28;;;;;;;4.40;3.40;;;4.70;99.90;;;;;;6272565;22;20144;-50
2021/12/19 12:47:54;;;;;;;4.40;3.45;;;4.40;99.90;;;;;;6269736;22;20658;-51
2021/12/19 12:50:20;;;;;;;4.03;3.30;;;4.70;99.90;;;;;;6271261;22;20151;-51
2021/12/19 12:52:46;;;;;;;4.95;3.63;;;4.70;99.90;;;;;;6282535;22;20528;-51
2021/12/19 12:55:14;;;;;;;5.60;4.35;;;4.50;99.90;;;;;;6272463;22;20164;-51
2021/12/19 12:57:43;;;;;;;8.18;4.90;;;4.70;99.90;;;;;;6271599;22;20160;-50
2021/12/19 13:00:20;;;;;;;10.60;8.38;;;4.70;99.90;;;;;;6271825;22;20199;-50
2021/12/19 13:02:54;;;;;;;5.22;4.43;;;4.40;99.90;;;;;;6272350;22;20180;-50
2021/12/19 13:05:20;;;;;;;4.22;3.72;;;4.50;99.90;;;;;;6283052;22;20560;-50
2021/12/19 13:07:46;;;;;;;7.13;3.93;;;4.30;99.90;;;;;;6282459;22;20159;-50
2021/12/19 13:10:11;;;;;;;4.17;3.77;;;4.10;99.90;;;;;;6273009;22;20195;-50
2021/12/19 13:12:41;;;;;;;5.13;4.53;;;4.90;99.90;;;;;;6282660;22;20160;-50
2021/12/19 13:15:09;;;;;;;7.40;3.58;;;4.60;99.90;;;;;;6271975;22;20258;-51
2021/12/19 13:17:45;;;;;;;5.88;4.07;;;5.00;99.90;;;;;;6280471;22;20178;-50
2021/12/19 13:20:11;;;;;;;4.45;3.72;;;4.80;99.90;;;;;;6272234;22;20227;-51
2021/12/19 13:22:49;;;;;;;4.45;3.30;;;4.90;99.90;;;;;;6270248;22;20201;-50
2021/12/19 13:25:18;;;;;;;4.90;3.58;;;4.60;99.90;;;;;;6282436;22;20440;-49
2021/12/19 13:27:46;;;;;;;5.32;4.10;;;5.00;99.90;;;;;;6271603;22;20157;-50
2021/12/19 13:30:23;;;;;;;5.78;4.10;;;4.70;99.90;;;;;;6282041;22;20148;-50
2021/12/19 13:33:01;;;;;;;8.27;5.10;;;4.70;99.90;;;;;;6272437;22;20155;-50
2021/12/19 13:35:40;;;;;;;4.68;4.00;;;4.60;99.90;;;;;;6284046;22;20132;-50
2021/12/19 13:38:10;;;;;;;4.13;3.70;;;4.60;99.90;;;;;;6272752;22;20181;-50
2021/12/19 13:40:44;;;;;;;4.72;3.58;;;4.50;99.90;;;;;;6284129;22;20166;-51
2021/12/19 13:43:17;;;;;;;4.97;3.88;;;4.50;99.90;;;;;;6273971;22;20191;-52
2021/12/19 13:45:56;;;;;;;4.85;3.95;;;4.60;99.90;;;;;;6284693;22;20142;-52
2021/12/19 13:48:32;;;;;;;4.57;3.80;;;4.50;99.90;;;;;;6272813;22;20146;-52
2021/12/19 13:51:16;;;;;;;4.75;4.25;;;4.60;99.90;;;;;;6284183;22;20583;-52
2021/12/19 13:53:47;;;;;;;4.65;4.07;;;4.60;99.90;;;;;;6284798;22;20184;-52
2021/12/19 13:56:16;;;;;;;4.18;3.58;;;4.60;99.90;;;;;;6274042;22;20236;-51
2021/12/19 13:58:46;;;;;;;4.57;4.05;;;4.30;99.90;;;;;;6272961;22;20234;-52